»·PEaware :: N348ME KTOA-KLGB

N348ME :: KTOA-KLGB

FLIGHT INFORMATION

Flight Status: Arrived
Operator: Privately registered:
United States
More flights under this callsign
Pilot: Paul W. (11376)
Aircraft: CESSNA 172 SKYHAWK
(C172)
More flights by this aircraft type
Origin: KTOA Zamperini
United States
Destination: KLGB Long Beach
United States
More flights between these airports :: More routes between these airports
Route: +SLI
File this flight plan on PilotEdge
Remarks:
Altitude:
(Current/Filed)
3,000ft
Speed:
(Current/Filed)
115kts
Departed: 11-Jan-19 10:20 PM
Arrived: 11-Jan-19 10:55 PM
Distance/Time
Traveled:
10nm/0:35
Distance/Time
To Go:
Arrived

Flight Plot

Page will automatically refresh every two minutes.

Flight plan parsing failed; only flown route is shown


Map Options




Map Legend


Flown Route
Filed Route
Departure Airport
Arrival Airport
Navaid (VOR, NDB)
Fix

Horizontal Profiles

Position Reports

Time Latitude Longitude Heading Altitude Ground
Speed
11-Jan-19 22:03 33.804899 -118.345950 215 4ft 0kts
11-Jan-19 22:04 33.804899 -118.345950 215 4ft 0kts
11-Jan-19 22:05 33.804899 -118.345950 215 4ft 0kts
11-Jan-19 22:06 33.804899 -118.345950 215 4ft 0kts
11-Jan-19 22:07 33.804899 -118.345950 215 4ft 0kts
11-Jan-19 22:08 33.804899 -118.345950 215 4ft 0kts
11-Jan-19 22:09 33.804899 -118.345950 215 4ft 0kts
11-Jan-19 22:10 33.804899 -118.345950 215 4ft 0kts
11-Jan-19 22:11 33.804899 -118.345950 215 4ft 0kts
11-Jan-19 22:12 33.804899 -118.345950 215 4ft 0kts
11-Jan-19 22:13 33.804899 -118.345950 215 4ft 0kts
11-Jan-19 22:14 33.804405 -118.345085 109 4ft 0kts
11-Jan-19 22:15 33.803628 -118.342950 128 4ft 20kts
11-Jan-19 22:16 33.799705 -118.337070 129 4ft 23kts
11-Jan-19 22:17 33.799097 -118.333287 35 4ft 4kts
11-Jan-19 22:18 33.799674 -118.333127 336 4ft 15kts
11-Jan-19 22:19 33.811121 -118.349452 305 626ft 72kts
11-Jan-19 22:20 33.823579 -118.367078 301 1464ft 69kts
11-Jan-19 22:21 33.835795 -118.384984 302 2225ft 70kts
11-Jan-19 22:22 33.849016 -118.403686 299 2931ft 74kts
11-Jan-19 22:23 33.864529 -118.431880 298 3028ft 109kts
11-Jan-19 22:24 33.844247 -118.441718 183 2857ft 107kts
11-Jan-19 22:25 33.815764 -118.446876 182 2911ft 98kts
11-Jan-19 22:26 33.787983 -118.447882 179 2891ft 100kts
11-Jan-19 22:27 33.761164 -118.441325 125 2858ft 108kts
11-Jan-19 22:28 33.763548 -118.404331 89 2883ft 110kts
11-Jan-19 22:29 33.761974 -118.368146 119 2864ft 108kts
11-Jan-19 22:30 33.749781 -118.335968 123 2881ft 106kts
11-Jan-19 22:31 33.737633 -118.303781 124 2876ft 107kts
11-Jan-19 22:32 33.724681 -118.272000 120 2883ft 107kts
11-Jan-19 22:33 33.711627 -118.240196 122 2893ft 106kts
11-Jan-19 22:34 33.698831 -118.208295 120 2894ft 106kts
11-Jan-19 22:35 33.686185 -118.176229 118 2900ft 106kts
11-Jan-19 22:36 33.672738 -118.144799 120 2906ft 106kts
11-Jan-19 22:37 33.659384 -118.113109 118 2901ft 106kts
11-Jan-19 22:38 33.647184 -118.080784 120 2881ft 105kts
11-Jan-19 22:39 33.633989 -118.049153 118 2861ft 106kts
11-Jan-19 22:40 33.621650 -118.016932 119 2842ft 105kts
11-Jan-19 22:41 33.609655 -117.984947 120 2525ft 111kts
11-Jan-19 22:42 33.595979 -117.951450 120 1892ft 114kts
11-Jan-19 22:44 33.606424 -117.921874 28 1939ft 131kts
11-Jan-19 22:45 33.640351 -117.914700 342 1931ft 121kts
11-Jan-19 22:46 33.672477 -117.928511 326 1940ft 126kts
11-Jan-19 22:47 33.699081 -117.955930 312 1961ft 129kts
11-Jan-19 22:48 33.725418 -117.985435 311 1887ft 129kts
11-Jan-19 22:49 33.749515 -118.014681 312 1843ft 122kts
11-Jan-19 22:50 33.772188 -118.040823 305 1872ft 100kts
11-Jan-19 22:51 33.786860 -118.065392 274 1790ft 93kts
11-Jan-19 22:52 33.796151 -118.093381 287 983ft 94kts
11-Jan-19 22:53 33.803823 -118.121306 273 375ft 66kts
11-Jan-19 22:54 33.809246 -118.140944 308 76ft 61kts
11-Jan-19 22:55 33.814650 -118.145502 343 4ft 7kts
11-Jan-19 22:56 33.815253 -118.145598 348 4ft 0kts

Navigation Log

Ident Type
Flight plan parsing failed, navigation log unavailable